Terminal Aerodrome Forecast
Issued by NWS Corpus Christi, TX

Home | Current Version | Previous Version | Text Only | Print | Product List | Glossary On
Versions: 1 2 3 4 5 6 7 8 9 10 11 12
000
FTUS44 KCRP 310525
TAFVCT
TAF
KVCT 310525Z 3106/0106 15005KT P6SM FEW020 SCT250
      TEMPO 3111/3114 6SM BR
     FM311400 17006KT P6SM VCSH BKN035
     FM311900 15012KT P6SM VCTS SCT040CB SCT250
     FM312300 14007KT P6SM SCT200=

USA.gov is the U.S. government's official web portal to all federal, state and local government web resources and services.